Map

Track Data

SID SEASON NUMBER BASIN SUBBASIN NAME ISO_TIME NATURE LAT LON WMO_WIND WMO_PRES WMO_AGENCY TRACK_TYPE DIST2LAND LANDFALL IFLAG USA_AGENCY USA_ATCF_ID USA_LAT USA_LON USA_RECORD USA_STATUS USA_WIND USA_PRES USA_SSHS USA_R34_NE USA_R34_SE USA_R34_SW USA_R34_NW USA_R50_NE USA_R50_SE USA_R50_SW USA_R50_NW USA_R64_NE USA_R64_SE USA_R64_SW USA_R64_NW USA_POCI USA_ROCI USA_RMW USA_EYE TOKYO_LAT TOKYO_LON TOKYO_GRADE TOKYO_WIND TOKYO_PRES TOKYO_R50_DIR TOKYO_R50_LONG TOKYO_R50_SHORT TOKYO_R30_DIR TOKYO_R30_LONG TOKYO_R30_SHORT TOKYO_LAND CMA_LAT CMA_LON CMA_CAT CMA_WIND CMA_PRES HKO_LAT HKO_LON HKO_CAT HKO_WIND HKO_PRES NEWDELHI_LAT NEWDELHI_LON NEWDELHI_GRADE NEWDELHI_WIND NEWDELHI_PRES NEWDELHI_CI NEWDELHI_DP NEWDELHI_POCI REUNION_LAT REUNION_LON REUNION_TYPE REUNION_WIND REUNION_PRES REUNION_TNUM REUNION_CI REUNION_RMW REUNION_R34_NE REUNION_R34_SE REUNION_R34_SW REUNION_R34_NW REUNION_R50_NE REUNION_R50_SE REUNION_R50_SW REUNION_R50_NW REUNION_R64_NE REUNION_R64_SE REUNION_R64_SW REUNION_R64_NW BOM_LAT BOM_LON BOM_TYPE BOM_WIND BOM_PRES BOM_TNUM BOM_CI BOM_RMW BOM_R34_NE BOM_R34_SE BOM_R34_SW BOM_R34_NW BOM_R50_NE BOM_R50_SE BOM_R50_SW BOM_R50_NW BOM_R64_NE BOM_R64_SE BOM_R64_SW BOM_R64_NW BOM_ROCI BOM_POCI BOM_EYE BOM_POS_METHOD BOM_PRES_METHOD NADI_LAT NADI_LON NADI_CAT NADI_WIND NADI_PRES WELLINGTON_LAT WELLINGTON_LON WELLINGTON_WIND WELLINGTON_PRES DS824_LAT DS824_LON DS824_STAGE DS824_WIND DS824_PRES TD9636_LAT TD9636_LON TD9636_STAGE TD9636_WIND TD9636_PRES TD9635_LAT TD9635_LON TD9635_WIND TD9635_PRES TD9635_ROCI NEUMANN_LAT NEUMANN_LON NEUMANN_CLASS NEUMANN_WIND NEUMANN_PRES MLC_LAT MLC_LON MLC_CLASS MLC_WIND MLC_PRES USA_GUST BOM_GUST BOM_GUST_PER REUNION_GUST REUNION_GUST_PER USA_SEAHGT USA_SEARAD_NE USA_SEARAD_SE USA_SEARAD_SW USA_SEARAD_NW STORM_SPEED STORM_DIR
1924264N16337 1924 34 NA NA NOT_NAMED 1924-09-20 00:00:00 TS 15.8000 -22.6000 25 hurdat_atl main 561 561 O_____________ hurdat_atl AL061924 15.8000 -22.6000 TD 25 -1 2 297
1924264N16337 1924 34 NA NA NOT_NAMED 1924-09-20 03:00:00 TS 15.8500 -22.7000 main 573 573 P_____________ AL061924 15.8500 -22.7000 TD 27 -1 2 297
1924264N16337 1924 34 NA NA NOT_NAMED 1924-09-20 06:00:00 TS 15.9000 -22.8000 30 hurdat_atl main 584 584 O_____________ hurdat_atl AL061924 15.9000 -22.8000 TD 30 -1 2 297
1924264N16337 1924 34 NA NA NOT_NAMED 1924-09-20 09:00:00 TS 15.9500 -22.9000 main 597 594 P_____________ AL061924 15.9500 -22.9000 TD 32 -1 2 297
1924264N16337 1924 34 NA NA NOT_NAMED 1924-09-20 12:00:00 TS 16.0000 -23.0000 35 hurdat_atl main 607 607 O_____________ hurdat_atl AL061924 16.0000 -23.0000 TS 35 0 2 297
1924264N16337 1924 34 NA NA NOT_NAMED 1924-09-20 15:00:00 TS 16.0500 -23.1000 main 620 618 P_____________ AL061924 16.0500 -23.1000 TS 37 0 2 297
1924264N16337 1924 34 NA NA NOT_NAMED 1924-09-20 18:00:00 TS 16.1000 -23.2000 40 hurdat_atl main 631 631 O_____________ hurdat_atl AL061924 16.1000 -23.2000 TS 40 0 2 299
1924264N16337 1924 34 NA NA NOT_NAMED 1924-09-20 21:00:00 TS 16.1500 -23.2925 main 641 641 P_____________ AL061924 16.1500 -23.2925 TS 40 0 2 297
1924264N16337 1924 34 NA NA NOT_NAMED 1924-09-21 00:00:00 TS 16.2000 -23.4000 40 hurdat_atl main 654 654 O_____________ hurdat_atl AL061924 16.2000 -23.4000 TS 40 0 3 291
1924264N16337 1924 34 NA NA NOT_NAMED 1924-09-21 03:00:00 TS 16.2425 -23.5425 main 664 664 P_____________ AL061924 16.2425 -23.5425 TS 40 0 3 289
1924264N16337 1924 34 NA NA NOT_NAMED 1924-09-21 06:00:00 TS 16.3000 -23.7000 40 hurdat_atl main 688 688 O_____________ hurdat_atl AL061924 16.3000 -23.7000 TS 40 0 3 297
1924264N16337 1924 34 NA NA NOT_NAMED 1924-09-21 09:00:00 TS 16.3849 -23.8350 main 701 701 P_____________ AL061924 16.3849 -23.8350 TS 40 0 4 305
1924264N16337 1924 34 NA NA NOT_NAMED 1924-09-21 12:00:00 TS 16.5000 -24.0000 40 hurdat_atl main 724 724 O_____________ hurdat_atl AL061924 16.5000 -24.0000 TS 40 0 4 304
1924264N16337 1924 34 NA NA NOT_NAMED 1924-09-21 15:00:00 TS 16.6350 -24.2201 main 748 748 P_____________ AL061924 16.6350 -24.2201 TS 40 0 6 302
1924264N16337 1924 34 NA NA NOT_NAMED 1924-09-21 18:00:00 TS 16.8000 -24.5000 40 hurdat_atl main 785 785 O_____________ hurdat_atl AL061924 16.8000 -24.5000 TS 40 0 7 302
1924264N16337 1924 34 NA NA NOT_NAMED 1924-09-21 21:00:00 TS 16.9924 -24.8201 main 822 822 P_____________ AL061924 16.9924 -24.8201 TS 37 0 8 301
1924264N16337 1924 34 NA NA NOT_NAMED 1924-09-22 00:00:00 TS 17.2000 -25.2000 35 1005 hurdat_atl main 869 869 O_____________ hurdat_atl AL061924 17.2000 -25.2000 TS 35 1005 0 9 298
1924264N16337 1924 34 NA NA NOT_NAMED 1924-09-22 03:00:00 TS 17.4000 -25.6351 main 916 916 P_____________ AL061924 17.4000 -25.6351 TS 35 0 9 295
1924264N16337 1924 34 NA NA NOT_NAMED 1924-09-22 06:00:00 TS 17.6000 -26.1000 35 hurdat_atl main 974 974 O_____________ hurdat_atl AL061924 17.6000 -26.1000 TS 35 0 10 294
1924264N16337 1924 34 NA NA NOT_NAMED 1924-09-22 09:00:00 TS 17.7923 -26.5427 main 1021 1021 P_____________ AL061924 17.7923 -26.5427 TS 35 0 9 295
1924264N16337 1924 34 NA NA NOT_NAMED 1924-09-22 12:00:00 TS 18.0000 -27.0000 35 hurdat_atl main 1078 1078 O_____________ hurdat_atl AL061924 18.0000 -27.0000 TS 35 0 10 296
1924264N16337 1924 34 NA NA NOT_NAMED 1924-09-22 15:00:00 TS 18.2403 -27.4896 main 1127 1124 P_____________ AL061924 18.2403 -27.4896 TS 35 0 11 298
1924264N16337 1924 34 NA NA NOT_NAMED 1924-09-22 18:00:00 TS 18.5000 -28.0000 35 hurdat_atl main 1169 O_____________ hurdat_atl AL061924 18.5000 -28.0000 TS 35 0 11 298

About IBTrACS Database

This database is a web-friendly format of International Best Track Archive for Climate Stewardship (IBTrACS), a global best track data archive curated by NOAA dating back to 1842.

Updated: 2021-10-25